createdAt,value
2022-10-05T00:00:56.074Z,20.30
2022-10-05T00:03:25.706Z,20.30
2022-10-05T00:05:53.891Z,20.30
2022-10-05T00:08:30.375Z,20.30
2022-10-05T00:10:57.877Z,20.30
2022-10-05T00:13:28.328Z,20.30
2022-10-05T00:16:10.903Z,20.30
2022-10-05T00:18:39.776Z,20.30
2022-10-05T00:21:20.757Z,20.30
2022-10-05T00:23:48.802Z,20.30
2022-10-05T00:26:25.753Z,20.30
2022-10-05T00:28:54.704Z,20.30
2022-10-05T00:31:30.979Z,20.30
2022-10-05T00:33:59.018Z,20.30
2022-10-05T00:36:27.618Z,20.30
2022-10-05T00:38:55.517Z,20.30
2022-10-05T00:41:34.945Z,20.30
2022-10-05T00:44:17.128Z,20.30
2022-10-05T00:46:44.752Z,20.30
2022-10-05T00:49:30.990Z,20.30
2022-10-05T00:52:35.981Z,20.30
2022-10-05T00:55:24.078Z,20.30
2022-10-05T00:58:07.482Z,20.30
2022-10-05T01:00:58.481Z,20.20
2022-10-05T01:03:54.691Z,20.20
2022-10-05T01:06:41.117Z,20.20
2022-10-05T01:09:40.444Z,20.20
2022-10-05T01:12:43.280Z,20.20
2022-10-05T01:15:16.870Z,20.20
2022-10-05T01:18:21.185Z,20.20
2022-10-05T01:21:03.752Z,20.20
2022-10-05T01:24:00.956Z,20.20
2022-10-05T01:27:09.693Z,20.20
2022-10-05T01:29:49.273Z,20.20
2022-10-05T01:32:31.817Z,20.20
2022-10-05T01:35:25.469Z,20.20
2022-10-05T01:38:02.184Z,20.20
2022-10-05T01:40:39.674Z,20.20
2022-10-05T01:43:39.741Z,20.20
2022-10-05T01:46:34.027Z,20.20
2022-10-05T01:49:18.603Z,20.20
2022-10-05T01:52:04.671Z,20.20
2022-10-05T01:54:58.334Z,20.20
2022-10-05T01:57:45.972Z,20.20
2022-10-05T02:00:20.216Z,20.20
2022-10-05T02:03:05.060Z,20.20
2022-10-05T02:05:35.421Z,20.20
2022-10-05T02:08:14.525Z,20.10
2022-10-05T02:10:50.491Z,20.10
2022-10-05T02:13:44.790Z,20.10
2022-10-05T02:16:16.964Z,20.10
2022-10-05T02:18:52.399Z,20.10
2022-10-05T02:21:21.747Z,20.10
2022-10-05T02:23:54.423Z,20.10
2022-10-05T02:26:24.458Z,20.10
2022-10-05T02:29:06.039Z,20.10
2022-10-05T02:31:36.397Z,20.10
2022-10-05T02:34:25.392Z,20.10
2022-10-05T02:37:29.462Z,20.10
2022-10-05T02:39:59.803Z,20.10
2022-10-05T02:42:52.400Z,20.10
2022-10-05T02:46:08.785Z,20.10
2022-10-05T02:49:30.249Z,20.10
2022-10-05T02:52:11.824Z,20.10
2022-10-05T02:55:03.794Z,20.10
2022-10-05T02:57:40.039Z,20.10
2022-10-05T03:00:13.977Z,20.10
2022-10-05T03:02:44.431Z,20.10
2022-10-05T03:05:34.112Z,20.10
2022-10-05T03:08:20.557Z,20.10
2022-10-05T03:10:57.094Z,20.10
2022-10-05T03:13:27.825Z,20.10
2022-10-05T03:16:17.612Z,20.10
2022-10-05T03:19:12.561Z,20.10
2022-10-05T03:22:01.828Z,20.10
2022-10-05T03:24:53.157Z,20.10
2022-10-05T03:27:47.023Z,20.10
2022-10-05T03:30:18.593Z,20.10
2022-10-05T03:33:20.157Z,20.10
2022-10-05T03:35:59.426Z,20.00
2022-10-05T03:38:29.582Z,20.00
2022-10-05T03:41:35.942Z,20.00
2022-10-05T03:44:16.789Z,20.00
2022-10-05T03:47:12.976Z,20.10
2022-10-05T03:50:12.140Z,20.10
2022-10-05T03:53:03.059Z,20.00
2022-10-05T03:55:45.568Z,20.00
2022-10-05T03:58:26.293Z,20.00
2022-10-05T04:01:01.427Z,20.00
2022-10-05T04:03:41.243Z,20.00
2022-10-05T04:06:20.831Z,20.00
2022-10-05T04:09:00.586Z,20.00
2022-10-05T04:11:42.358Z,20.00
2022-10-05T04:14:27.939Z,20.00
2022-10-05T04:17:03.288Z,20.00
2022-10-05T04:20:03.176Z,20.00
2022-10-05T04:22:35.487Z,20.00
2022-10-05T04:25:30.037Z,20.00
2022-10-05T04:28:02.699Z,20.00
2022-10-05T04:30:33.003Z,20.00
2022-10-05T04:33:01.201Z,20.00
2022-10-05T04:35:32.436Z,20.00
2022-10-05T04:38:03.682Z,20.00
2022-10-05T04:40:46.275Z,20.00
2022-10-05T04:43:28.704Z,20.00
2022-10-05T04:46:18.732Z,20.00
2022-10-05T04:48:58.978Z,20.00
2022-10-05T04:51:38.594Z,20.00
2022-10-05T04:54:19.616Z,20.00
2022-10-05T04:56:53.897Z,20.00
2022-10-05T04:59:39.614Z,20.00
2022-10-05T05:02:39.124Z,20.00
2022-10-05T05:05:24.259Z,20.00
2022-10-05T05:08:24.124Z,20.00
2022-10-05T05:11:07.298Z,20.00
2022-10-05T05:13:43.723Z,20.00
2022-10-05T05:16:23.962Z,20.00
2022-10-05T05:19:13.211Z,19.90
2022-10-05T05:21:49.727Z,20.00
2022-10-05T05:24:39.260Z,19.90
2022-10-05T05:27:22.149Z,19.90
2022-10-05T05:30:11.431Z,19.90
2022-10-05T05:32:56.217Z,20.00
2022-10-05T05:35:41.414Z,19.90
2022-10-05T05:38:51.996Z,19.90
2022-10-05T05:41:25.311Z,19.90
2022-10-05T05:44:16.707Z,19.90
2022-10-05T05:47:04.019Z,19.90
2022-10-05T05:49:50.811Z,19.90
2022-10-05T05:52:34.799Z,19.90
2022-10-05T05:55:17.867Z,19.90
2022-10-05T05:57:59.174Z,20.00
2022-10-05T06:00:44.874Z,19.90
2022-10-05T06:03:22.522Z,19.90
2022-10-05T06:05:53.941Z,19.90
2022-10-05T06:08:27.533Z,19.90
2022-10-05T06:11:17.962Z,19.90
2022-10-05T06:13:47.115Z,19.90
2022-10-05T06:16:28.739Z,19.90
2022-10-05T06:19:00.810Z,19.90
2022-10-05T06:21:45.638Z,19.90
2022-10-05T06:24:19.052Z,20.00
2022-10-05T06:27:23.727Z,20.00
2022-10-05T06:30:13.693Z,20.00
2022-10-05T06:32:50.555Z,20.00
2022-10-05T06:35:38.875Z,20.00
2022-10-05T06:38:23.950Z,20.00
2022-10-05T06:41:16.043Z,20.00
2022-10-05T06:44:10.693Z,20.00
2022-10-05T06:46:45.174Z,20.00
2022-10-05T06:49:51.599Z,20.00
2022-10-05T06:52:59.489Z,19.90
2022-10-05T06:55:42.474Z,20.00
2022-10-05T06:58:49.040Z,19.90
2022-10-05T07:01:58.006Z,19.90
2022-10-05T07:04:47.788Z,19.90
2022-10-05T07:07:20.869Z,19.90
2022-10-05T07:09:48.234Z,19.90
2022-10-05T07:12:53.285Z,19.90
2022-10-05T07:15:27.719Z,19.90
2022-10-05T07:18:10.021Z,19.90
2022-10-05T07:21:02.830Z,19.90
2022-10-05T07:23:45.943Z,20.00
2022-10-05T07:26:31.137Z,19.90
2022-10-05T07:29:07.468Z,19.90
2022-10-05T07:31:36.010Z,19.90
2022-10-05T07:34:15.456Z,20.00
2022-10-05T07:37:20.407Z,20.00
2022-10-05T07:40:00.851Z,20.10
2022-10-05T07:42:56.659Z,20.10
2022-10-05T07:45:55.557Z,20.20
2022-10-05T07:48:35.843Z,20.40
2022-10-05T07:51:16.155Z,20.50
2022-10-05T07:54:07.251Z,20.60
2022-10-05T07:56:48.999Z,20.70
2022-10-05T07:59:40.235Z,20.80
2022-10-05T08:02:22.847Z,20.90
2022-10-05T08:05:02.875Z,21.00
2022-10-05T08:07:34.820Z,21.10
2022-10-05T08:10:20.736Z,21.20
2022-10-05T08:13:21.916Z,21.20
2022-10-05T08:15:56.914Z,21.30
2022-10-05T08:18:45.412Z,21.40
2022-10-05T08:21:16.394Z,21.40
2022-10-05T08:23:58.334Z,21.50
2022-10-05T08:27:16.732Z,21.60
2022-10-05T08:30:11.112Z,21.60
2022-10-05T08:33:01.813Z,21.60
2022-10-05T08:35:35.143Z,21.70
2022-10-05T08:38:10.567Z,21.70
2022-10-05T08:40:59.575Z,21.70
2022-10-05T08:43:35.294Z,21.70
2022-10-05T08:46:24.469Z,21.80
2022-10-05T08:49:22.591Z,21.80
2022-10-05T08:52:24.038Z,21.90
2022-10-05T08:55:06.468Z,21.90
2022-10-05T08:57:48.867Z,21.90
2022-10-05T09:00:32.233Z,22.00
2022-10-05T09:03:34.769Z,22.00
2022-10-05T09:06:16.035Z,22.00
2022-10-05T09:08:52.403Z,22.10
2022-10-05T09:11:34.473Z,22.10
2022-10-05T09:14:21.083Z,22.10
2022-10-05T09:17:11.502Z,22.20
2022-10-05T09:19:57.556Z,22.20
2022-10-05T09:22:35.785Z,22.20
2022-10-05T09:25:23.019Z,22.20
2022-10-05T09:27:59.018Z,22.30
2022-10-05T09:30:48.018Z,22.30
2022-10-05T09:33:39.993Z,22.30
2022-10-05T09:36:38.659Z,22.30
2022-10-05T09:39:05.983Z,22.30
2022-10-05T09:41:54.640Z,22.40
2022-10-05T09:44:45.802Z,22.40
2022-10-05T09:47:31.829Z,22.40
2022-10-05T09:50:21.141Z,22.40
2022-10-05T09:52:57.131Z,22.50
2022-10-05T09:55:39.925Z,22.50
2022-10-05T09:58:14.550Z,22.50
2022-10-05T10:01:32.570Z,22.60
2022-10-05T10:04:15.737Z,22.70
2022-10-05T10:07:08.102Z,22.80
2022-10-05T10:09:39.713Z,22.80
2022-10-05T10:12:49.196Z,22.80
2022-10-05T10:15:32.039Z,22.90
2022-10-05T10:18:35.110Z,23.00
2022-10-05T10:21:21.385Z,23.00
2022-10-05T10:24:16.849Z,23.00
2022-10-05T10:27:12.454Z,23.00
2022-10-05T10:30:19.059Z,23.10
2022-10-05T10:32:57.079Z,23.10
2022-10-05T10:36:02.900Z,23.00
2022-10-05T10:38:36.605Z,23.10
2022-10-05T10:41:09.630Z,23.00
2022-10-05T10:43:39.441Z,23.00
2022-10-05T10:46:23.526Z,23.00
2022-10-05T10:49:09.974Z,23.00
2022-10-05T10:51:52.634Z,23.00
2022-10-05T10:54:31.714Z,23.00
2022-10-05T10:57:15.377Z,23.00
2022-10-05T11:00:08.681Z,22.90
2022-10-05T11:03:05.900Z,23.00
2022-10-05T11:06:00.114Z,22.90
2022-10-05T11:08:27.542Z,22.90
2022-10-05T11:11:18.155Z,22.90
2022-10-05T11:14:03.498Z,22.90
2022-10-05T11:17:31.793Z,22.80
2022-10-05T11:20:19.658Z,22.80
2022-10-05T11:23:08.224Z,22.70
2022-10-05T11:26:06.763Z,22.70
2022-10-05T11:28:53.471Z,22.70
2022-10-05T11:31:23.942Z,22.70
2022-10-05T11:34:00.397Z,22.70
2022-10-05T11:37:05.473Z,22.60
2022-10-05T11:39:43.763Z,22.60
2022-10-05T11:42:35.978Z,22.60
2022-10-05T11:45:15.413Z,22.50
2022-10-05T11:48:17.121Z,22.40
2022-10-05T11:50:58.178Z,22.40
2022-10-05T11:53:32.439Z,22.40
2022-10-05T11:56:23.910Z,22.30
2022-10-05T11:59:00.730Z,22.30
2022-10-05T12:01:57.654Z,22.30
2022-10-05T12:04:52.548Z,22.30
2022-10-05T12:07:35.943Z,22.30
2022-10-05T12:10:15.388Z,22.30
2022-10-05T12:13:13.812Z,22.30
2022-10-05T12:15:48.238Z,22.30
2022-10-05T12:18:23.581Z,22.30
2022-10-05T12:21:07.810Z,22.20
2022-10-05T12:24:08.947Z,22.20
2022-10-05T12:27:16.141Z,22.20
2022-10-05T12:30:26.594Z,22.20
2022-10-05T12:33:19.891Z,22.20
2022-10-05T12:36:01.992Z,22.20
2022-10-05T12:38:46.321Z,22.20
2022-10-05T12:41:18.860Z,22.20
2022-10-05T12:44:04.422Z,22.20
2022-10-05T12:47:01.350Z,22.20
2022-10-05T12:49:46.781Z,22.20
2022-10-05T12:52:34.921Z,22.20
2022-10-05T12:55:15.619Z,22.20
2022-10-05T12:57:57.931Z,22.10
2022-10-05T13:00:25.777Z,22.10
2022-10-05T13:03:08.759Z,22.10
2022-10-05T13:06:02.489Z,22.00
2022-10-05T13:08:39.272Z,22.00
2022-10-05T13:11:14.876Z,22.00
2022-10-05T13:14:29.312Z,22.00
2022-10-05T13:17:19.108Z,22.00
2022-10-05T13:20:03.310Z,22.00
2022-10-05T13:22:46.664Z,22.00
2022-10-05T13:25:14.132Z,22.00
2022-10-05T13:27:46.345Z,22.00
2022-10-05T13:30:21.481Z,22.00
2022-10-05T13:33:06.879Z,22.00
2022-10-05T13:36:03.102Z,22.00
2022-10-05T13:38:39.296Z,22.00
2022-10-05T13:41:41.746Z,22.00
2022-10-05T13:44:32.129Z,22.00
2022-10-05T13:47:05.885Z,22.00
2022-10-05T13:49:51.003Z,22.00
2022-10-05T13:52:32.239Z,22.00
2022-10-05T13:55:14.742Z,22.00
2022-10-05T13:57:52.538Z,22.00
2022-10-05T14:00:27.124Z,22.00
2022-10-05T14:02:58.001Z,22.00
2022-10-05T14:05:31.745Z,22.00
2022-10-05T14:08:17.448Z,22.00
2022-10-05T14:10:47.963Z,22.00
2022-10-05T14:13:47.041Z,22.00
2022-10-05T14:16:26.323Z,22.00
2022-10-05T14:19:19.088Z,22.00
2022-10-05T14:22:22.792Z,22.00
2022-10-05T14:25:09.418Z,22.00
2022-10-05T14:28:00.365Z,22.00
2022-10-05T14:30:30.378Z,22.10
2022-10-05T14:33:13.141Z,22.10
2022-10-05T14:35:51.927Z,22.20
2022-10-05T14:38:22.728Z,22.30
2022-10-05T14:41:17.723Z,22.30
2022-10-05T14:43:56.463Z,22.40
2022-10-05T14:46:29.084Z,22.40
2022-10-05T14:49:37.517Z,22.50
2022-10-05T14:52:34.899Z,22.60
2022-10-05T14:55:22.656Z,22.70
2022-10-05T14:58:08.960Z,22.80
2022-10-05T15:00:49.009Z,22.90
2022-10-05T15:03:35.655Z,22.90
2022-10-05T15:06:05.630Z,23.00
2022-10-05T15:08:57.683Z,23.00
2022-10-05T15:11:36.921Z,23.10
2022-10-05T15:14:19.425Z,23.10
2022-10-05T15:16:52.412Z,23.20
2022-10-05T15:19:27.629Z,23.30
2022-10-05T15:22:30.379Z,23.30
2022-10-05T15:25:14.047Z,23.40
2022-10-05T15:27:41.501Z,23.40
2022-10-05T15:30:09.418Z,23.50
2022-10-05T15:32:48.613Z,23.60
2022-10-05T15:35:37.317Z,23.60
2022-10-05T15:38:25.823Z,23.80
2022-10-05T15:41:07.958Z,23.80
2022-10-05T15:44:01.706Z,23.90
2022-10-05T15:47:04.253Z,23.90
2022-10-05T15:49:57.306Z,23.90
2022-10-05T15:52:38.053Z,23.90
2022-10-05T15:55:28.623Z,23.90
2022-10-05T15:58:10.591Z,23.90
2022-10-05T16:00:46.211Z,23.90
2022-10-05T16:03:46.891Z,23.90
2022-10-05T16:06:47.200Z,23.90
2022-10-05T16:09:49.930Z,23.90
2022-10-05T16:12:43.378Z,23.80
2022-10-05T16:15:18.846Z,23.80
2022-10-05T16:18:18.610Z,23.80
2022-10-05T16:20:46.007Z,23.90
2022-10-05T16:23:22.235Z,23.80
2022-10-05T16:25:58.939Z,23.80
2022-10-05T16:28:31.427Z,23.80
2022-10-05T16:31:19.172Z,23.80
2022-10-05T16:34:04.176Z,23.80
2022-10-05T16:37:01.404Z,23.80
2022-10-05T16:40:00.791Z,23.80
2022-10-05T16:43:01.553Z,23.80
2022-10-05T16:45:51.987Z,23.80
2022-10-05T16:48:29.023Z,23.80
2022-10-05T16:51:08.867Z,23.80
2022-10-05T16:53:41.776Z,23.80
2022-10-05T16:56:43.952Z,23.80
2022-10-05T16:59:29.829Z,23.70
2022-10-05T17:02:20.319Z,23.70
2022-10-05T17:04:58.133Z,23.70
2022-10-05T17:07:39.553Z,23.70
2022-10-05T17:10:25.643Z,23.70
2022-10-05T17:13:08.101Z,23.60
2022-10-05T17:16:00.890Z,23.60
2022-10-05T17:18:57.151Z,23.60
2022-10-05T17:21:47.617Z,23.60
2022-10-05T17:24:44.284Z,23.60
2022-10-05T17:27:21.243Z,23.60
2022-10-05T17:30:12.402Z,23.60
2022-10-05T17:32:55.493Z,23.50
2022-10-05T17:35:41.917Z,23.50
2022-10-05T17:38:24.310Z,23.50
2022-10-05T17:41:12.107Z,23.50
2022-10-05T17:43:39.837Z,23.50
2022-10-05T17:46:10.182Z,23.50
2022-10-05T17:49:25.746Z,23.50
2022-10-05T17:52:11.571Z,23.50
2022-10-05T17:55:03.630Z,23.40
2022-10-05T17:57:32.405Z,23.50
2022-10-05T18:00:02.519Z,23.40
2022-10-05T18:02:36.966Z,23.40
2022-10-05T18:05:04.893Z,23.40
2022-10-05T18:07:34.348Z,23.30
2022-10-05T18:10:13.355Z,23.30
2022-10-05T18:13:11.141Z,23.30
2022-10-05T18:15:45.436Z,23.30
2022-10-05T18:18:56.066Z,23.20
2022-10-05T18:21:32.994Z,23.20
2022-10-05T18:24:01.874Z,23.20
2022-10-05T18:26:43.814Z,23.20
2022-10-05T18:29:56.955Z,23.20
2022-10-05T18:32:59.352Z,23.10
2022-10-05T18:36:06.320Z,23.10
2022-10-05T18:38:48.754Z,23.10
2022-10-05T18:41:45.503Z,23.10
2022-10-05T18:44:22.201Z,23.10
2022-10-05T18:46:57.808Z,23.00
2022-10-05T18:49:32.269Z,23.00
2022-10-05T18:52:08.706Z,23.00
2022-10-05T18:54:51.301Z,23.00
2022-10-05T18:57:31.756Z,23.00
2022-10-05T19:00:06.999Z,23.00
2022-10-05T19:02:43.235Z,23.00
2022-10-05T19:05:46.436Z,23.00
2022-10-05T19:08:31.296Z,23.00
2022-10-05T19:11:29.274Z,22.90
2022-10-05T19:14:05.756Z,22.90
2022-10-05T19:16:39.072Z,22.90
2022-10-05T19:19:30.733Z,22.90
2022-10-05T19:22:30.556Z,22.90
2022-10-05T19:25:37.998Z,22.90
2022-10-05T19:28:30.833Z,22.90
2022-10-05T19:31:26.058Z,22.80
2022-10-05T19:34:03.194Z,22.80
2022-10-05T19:36:59.319Z,22.80
2022-10-05T19:39:46.183Z,22.80
2022-10-05T19:42:50.094Z,22.80
2022-10-05T19:45:29.542Z,22.80
2022-10-05T19:48:09.899Z,22.80
2022-10-05T19:50:41.069Z,22.80
2022-10-05T19:53:23.876Z,22.80
2022-10-05T19:55:51.691Z,22.80
2022-10-05T19:58:19.116Z,22.70
2022-10-05T20:00:54.930Z,22.70
2022-10-05T20:03:27.945Z,22.70
2022-10-05T20:06:07.156Z,22.70
2022-10-05T20:08:45.330Z,22.70
2022-10-05T20:11:20.144Z,22.70
2022-10-05T20:13:53.596Z,22.70
2022-10-05T20:16:39.561Z,22.70
2022-10-05T20:19:49.584Z,22.70
2022-10-05T20:22:25.835Z,22.60
2022-10-05T20:24:56.948Z,22.60
2022-10-05T20:27:47.289Z,22.60
2022-10-05T20:30:18.527Z,22.60
2022-10-05T20:32:53.639Z,22.60
2022-10-05T20:35:25.374Z,22.50
2022-10-05T20:37:52.783Z,22.50
2022-10-05T20:40:21.392Z,22.40
2022-10-05T20:42:48.734Z,22.40
2022-10-05T20:45:16.211Z,22.40
2022-10-05T20:47:43.941Z,22.40
2022-10-05T20:50:11.393Z,22.40
2022-10-05T20:52:39.005Z,22.30
2022-10-05T20:55:09.088Z,22.30
2022-10-05T20:57:41.667Z,22.30
2022-10-05T21:00:10.875Z,22.30
2022-10-05T21:02:39.594Z,22.20
2022-10-05T21:05:07.849Z,22.20
2022-10-05T21:07:35.408Z,22.20
2022-10-05T21:10:03.913Z,22.20
2022-10-05T21:12:34.111Z,22.20
2022-10-05T21:15:03.211Z,22.20
2022-10-05T21:17:31.507Z,22.10
2022-10-05T21:20:00.051Z,22.10
2022-10-05T21:22:27.412Z,22.10
2022-10-05T21:24:55.351Z,22.10
2022-10-05T21:27:22.697Z,22.10
2022-10-05T21:29:50.047Z,22.10
2022-10-05T21:32:17.401Z,22.00
2022-10-05T21:34:44.885Z,22.00
2022-10-05T21:37:12.337Z,22.00
2022-10-05T21:39:39.672Z,22.00
2022-10-05T21:42:06.987Z,22.00
2022-10-05T21:44:34.404Z,22.00
2022-10-05T21:47:02.125Z,21.90
2022-10-05T21:49:29.833Z,21.90
2022-10-05T21:51:58.593Z,21.90
2022-10-05T21:54:26.125Z,21.90
2022-10-05T21:56:57.000Z,21.90
2022-10-05T21:59:28.787Z,21.90
2022-10-05T22:01:56.144Z,21.90
2022-10-05T22:04:23.555Z,21.80
2022-10-05T22:06:51.391Z,21.80
2022-10-05T22:09:18.793Z,21.80
2022-10-05T22:11:49.442Z,21.80
2022-10-05T22:14:17.116Z,21.80
2022-10-05T22:16:45.057Z,21.80
2022-10-05T22:19:19.302Z,21.80
2022-10-05T22:21:47.039Z,21.80
2022-10-05T22:24:14.442Z,21.70
2022-10-05T22:26:45.364Z,21.70
2022-10-05T22:29:14.783Z,21.70
2022-10-05T22:31:42.562Z,21.70
2022-10-05T22:34:10.012Z,21.70
2022-10-05T22:36:37.721Z,21.70
2022-10-05T22:39:05.163Z,21.70
2022-10-05T22:41:32.624Z,21.70
2022-10-05T22:44:00.581Z,21.70
2022-10-05T22:46:28.185Z,21.60
2022-10-05T22:48:55.649Z,21.60
2022-10-05T22:51:23.044Z,21.70
2022-10-05T22:53:50.505Z,21.60
2022-10-05T22:56:18.114Z,21.60
2022-10-05T22:58:45.940Z,21.60
2022-10-05T23:01:16.120Z,21.60
2022-10-05T23:03:43.922Z,21.60
2022-10-05T23:06:14.149Z,21.60
2022-10-05T23:08:42.276Z,21.60
2022-10-05T23:11:13.069Z,21.60
2022-10-05T23:13:41.523Z,21.50
2022-10-05T23:16:12.241Z,21.50
2022-10-05T23:18:40.131Z,21.50
2022-10-05T23:21:09.860Z,21.50
2022-10-05T23:23:38.556Z,21.50
2022-10-05T23:26:07.933Z,21.50
2022-10-05T23:28:35.468Z,21.50
2022-10-05T23:31:06.731Z,21.40
2022-10-05T23:33:35.246Z,21.50
2022-10-05T23:36:06.726Z,21.40
2022-10-05T23:38:35.889Z,21.40
2022-10-05T23:41:04.085Z,21.40
2022-10-05T23:43:33.427Z,21.40
2022-10-05T23:46:01.927Z,21.40
2022-10-05T23:48:30.765Z,21.40
2022-10-05T23:50:59.663Z,21.40
2022-10-05T23:53:27.071Z,21.40
2022-10-05T23:55:54.683Z,21.40
2022-10-05T23:58:23.222Z,21.30
